KGJT/GJT METAR and TAF weather

Enter ICAO airport designator
Station Type Date Time Source
KGJT METAR 2022/01/29 00:53 UTC NOAA

KGJT 290053Z 00000KT 10SM CLR M02/M08 A3053 RMK AO2 SLP379 T10221078


Station Type Date Time Source
KGJT Decoded METAR 2022/01/29 00:53 UTC NOAA

GRAND JUNCTION WALKER FIELD, CO, United States (KGJT) 39-08N 108-32W 1452M
Jan 28, 2022 - 07:53 PM EST / 2022.01.29 0053 UTC
Wind: Calm:0
Visibility: 10 mile(s):0
Sky conditions: clear
Temperature: 28.0 F (-2.2 C)
Dew Point: 18.0 F (-7.8 C)
Relative Humidity: 65%
Pressure (altimeter): 30.53 in. Hg (1033 hPa)
ob: KGJT 290053Z 00000KT 10SM CLR M02/M08 A3053 RMK AO2 SLP379 T10221078
cycle: 1

Station Type Date Time Source
KGJT TAF 2022/01/28 18:22 UTC NOAA

TAF KGJT 281720Z 2818/2918 15007KT P6SM SKC
FM282300 29004KT P6SM SKC
FM290200 08005KT P6SM SKC

Example: see airport list